createdAt,value
2022-11-21T00:01:25.122Z,5.63
2022-11-21T00:03:52.258Z,10.75
2022-11-21T00:06:19.433Z,6.35
2022-11-21T00:08:47.142Z,5.97
2022-11-21T00:11:14.226Z,4.50
2022-11-21T00:13:41.716Z,10.60
2022-11-21T00:16:13.950Z,4.03
2022-11-21T00:18:41.765Z,9.20
2022-11-21T00:21:12.629Z,12.00
2022-11-21T00:23:39.679Z,9.38
2022-11-21T00:26:08.495Z,10.02
2022-11-21T00:28:36.153Z,8.60
2022-11-21T00:31:03.695Z,8.38
2022-11-21T00:33:30.766Z,7.15
2022-11-21T00:35:57.800Z,14.68
2022-11-21T00:38:24.744Z,12.38
2022-11-21T00:40:51.618Z,9.25
2022-11-21T00:43:18.519Z,8.57
2022-11-21T00:45:45.377Z,11.80
2022-11-21T00:48:12.290Z,11.50
2022-11-21T00:50:39.136Z,13.57
2022-11-21T00:53:05.955Z,12.05
2022-11-21T00:55:32.830Z,25.70
2022-11-21T00:57:59.719Z,17.10
2022-11-21T01:00:26.591Z,14.32
2022-11-21T01:02:53.422Z,7.55
2022-11-21T01:05:20.401Z,16.73
2022-11-21T01:07:49.363Z,19.05
2022-11-21T01:10:16.505Z,17.20
2022-11-21T01:12:44.594Z,18.02
2022-11-21T01:15:11.690Z,19.95
2022-11-21T01:17:38.546Z,21.67
2022-11-21T01:20:07.142Z,15.38
2022-11-21T01:22:34.164Z,24.30
2022-11-21T01:25:01.076Z,21.52
2022-11-21T01:27:27.908Z,22.42
2022-11-21T01:29:54.817Z,27.65
2022-11-21T01:32:21.721Z,20.13
2022-11-21T01:34:48.574Z,19.20
2022-11-21T01:37:15.418Z,24.48
2022-11-21T01:39:42.332Z,14.27
2022-11-21T01:42:12.588Z,19.23
2022-11-21T01:44:55.419Z,22.98
2022-11-21T01:47:22.993Z,22.13
2022-11-21T01:49:51.713Z,19.63
2022-11-21T01:52:29.965Z,24.10
2022-11-21T01:55:08.169Z,21.58
2022-11-21T01:57:42.801Z,20.42
2022-11-21T02:00:21.659Z,21.70
2022-11-21T02:02:53.050Z,22.50
2022-11-21T02:05:26.791Z,20.90
2022-11-21T02:07:57.175Z,25.73
2022-11-21T02:10:24.923Z,25.10
2022-11-21T02:12:54.187Z,22.50
2022-11-21T02:15:24.548Z,28.80
2022-11-21T02:17:51.458Z,35.95
2022-11-21T02:20:21.443Z,28.60
2022-11-21T02:23:10.115Z,29.15
2022-11-21T02:25:41.503Z,23.00
2022-11-21T02:28:12.284Z,23.65
2022-11-21T02:30:41.148Z,30.02
2022-11-21T02:33:09.211Z,35.80
2022-11-21T02:35:36.386Z,21.20
2022-11-21T02:38:08.139Z,29.70
2022-11-21T02:40:39.278Z,37.60
2022-11-21T02:43:28.552Z,29.60
2022-11-21T02:45:56.313Z,39.33
2022-11-21T02:48:23.194Z,23.58
2022-11-21T02:50:50.144Z,24.90
2022-11-21T02:53:19.198Z,26.52
2022-11-21T02:55:46.391Z,31.33
2022-11-21T02:58:13.631Z,33.88
2022-11-21T03:00:42.729Z,29.60
2022-11-21T03:03:09.995Z,41.78
2022-11-21T03:05:38.258Z,31.13
2022-11-21T03:08:06.179Z,28.10
2022-11-21T03:10:33.598Z,34.58
2022-11-21T03:13:03.790Z,34.33
2022-11-21T03:15:33.444Z,40.28
2022-11-21T03:18:03.060Z,44.88
2022-11-21T03:20:31.638Z,44.65
2022-11-21T03:22:58.717Z,46.42
2022-11-21T03:25:25.781Z,31.65
2022-11-21T03:27:54.029Z,38.40
2022-11-21T03:30:22.287Z,40.72
2022-11-21T03:32:49.313Z,47.17
2022-11-21T03:35:16.759Z,41.05
2022-11-21T03:37:43.678Z,38.13
2022-11-21T03:40:11.826Z,29.45
2022-11-21T03:42:38.747Z,42.00
2022-11-21T03:45:06.187Z,52.72
2022-11-21T03:47:33.130Z,39.92
2022-11-21T03:50:00.052Z,37.08
2022-11-21T03:52:26.920Z,41.58
2022-11-21T03:54:53.835Z,36.72
2022-11-21T03:57:20.715Z,37.72
2022-11-21T03:59:47.550Z,34.22
2022-11-21T04:02:14.408Z,29.30
2022-11-21T04:04:41.343Z,44.05
2022-11-21T04:07:08.804Z,33.78
2022-11-21T04:09:35.815Z,42.58
2022-11-21T04:12:07.468Z,64.18
2022-11-21T04:14:35.009Z,43.53
2022-11-21T04:17:01.985Z,36.30
2022-11-21T04:19:28.983Z,46.45
2022-11-21T04:21:55.784Z,44.95
2022-11-21T04:24:22.745Z,50.42
2022-11-21T04:26:49.622Z,42.03
2022-11-21T04:29:16.556Z,47.85
2022-11-21T04:31:43.526Z,53.88
2022-11-21T04:34:10.626Z,41.78
2022-11-21T04:36:37.629Z,31.15
2022-11-21T04:39:04.606Z,38.90
2022-11-21T04:41:31.554Z,46.08
2022-11-21T04:43:58.431Z,40.63
2022-11-21T04:46:25.342Z,48.97
2022-11-21T04:48:52.197Z,28.50
2022-11-21T04:51:19.046Z,36.60
2022-11-21T04:53:46.048Z,40.95
2022-11-21T04:56:16.495Z,46.33
2022-11-21T04:58:44.899Z,37.85
2022-11-21T05:01:12.385Z,56.63
2022-11-21T05:03:39.691Z,43.72
2022-11-21T05:06:06.580Z,41.03
2022-11-21T05:08:33.440Z,41.78
2022-11-21T05:11:19.168Z,42.33
2022-11-21T05:13:45.992Z,35.88
2022-11-21T05:16:12.882Z,71.40
2022-11-21T05:18:39.872Z,64.43
2022-11-21T05:21:06.767Z,35.72
2022-11-21T05:23:33.701Z,45.00
2022-11-21T05:26:00.572Z,35.08
2022-11-21T05:28:27.588Z,48.78
2022-11-21T05:30:54.524Z,44.03
2022-11-21T05:33:21.598Z,45.65
2022-11-21T05:35:48.499Z,37.42
2022-11-21T05:38:15.378Z,32.78
2022-11-21T05:40:42.243Z,39.28
2022-11-21T05:43:30.729Z,44.10
2022-11-21T05:45:57.990Z,33.95
2022-11-21T05:48:25.006Z,41.05
2022-11-21T05:50:51.903Z,31.90
2022-11-21T05:53:19.111Z,46.47
2022-11-21T05:55:46.500Z,55.80
2022-11-21T05:58:14.234Z,43.88
2022-11-21T06:00:41.116Z,33.70
2022-11-21T06:03:30.767Z,38.58
2022-11-21T06:06:06.639Z,38.03
2022-11-21T06:08:39.528Z,41.35
2022-11-21T06:11:07.836Z,45.83
2022-11-21T06:13:35.053Z,44.70
2022-11-21T06:16:08.330Z,34.28
2022-11-21T06:18:40.731Z,40.65
2022-11-21T06:21:09.069Z,47.47
2022-11-21T06:23:36.608Z,32.03
2022-11-21T06:26:06.600Z,39.45
2022-11-21T06:28:38.496Z,41.83
2022-11-21T06:31:07.113Z,40.33
2022-11-21T06:33:34.725Z,38.63
2022-11-21T06:36:07.478Z,47.45
2022-11-21T06:38:34.783Z,43.13
2022-11-21T06:41:12.090Z,34.15
2022-11-21T06:43:39.000Z,63.00
2022-11-21T06:46:06.588Z,40.38
2022-11-21T06:48:35.335Z,41.50
2022-11-21T06:51:12.748Z,36.13
2022-11-21T06:53:39.790Z,37.42
2022-11-21T06:56:06.774Z,33.53
2022-11-21T06:58:33.821Z,37.83
2022-11-21T07:01:09.133Z,37.70
2022-11-21T07:03:36.645Z,33.33
2022-11-21T07:06:03.806Z,27.17
2022-11-21T07:08:32.192Z,36.13
2022-11-21T07:11:25.487Z,31.77
2022-11-21T07:13:53.098Z,42.72
2022-11-21T07:16:19.989Z,37.42
2022-11-21T07:18:46.835Z,35.05
2022-11-21T07:21:13.901Z,35.47
2022-11-21T07:23:40.958Z,36.42
2022-11-21T07:26:08.627Z,36.72
2022-11-21T07:28:35.621Z,35.40
2022-11-21T07:31:08.504Z,23.42
2022-11-21T07:33:39.810Z,38.92
2022-11-21T07:36:07.465Z,29.73
2022-11-21T07:38:34.399Z,35.80
2022-11-21T07:41:01.386Z,34.42
2022-11-21T07:43:28.275Z,42.63
2022-11-21T07:45:56.177Z,18.73
2022-11-21T07:48:23.183Z,25.77
2022-11-21T07:50:50.089Z,26.52
2022-11-21T07:53:16.923Z,27.15
2022-11-21T07:55:43.898Z,26.70
2022-11-21T07:58:13.111Z,35.10
2022-11-21T08:00:43.077Z,24.73
2022-11-21T08:03:14.816Z,28.00
2022-11-21T08:05:43.621Z,22.90
2022-11-21T08:08:12.654Z,20.63
2022-11-21T08:10:42.328Z,37.10
2022-11-21T08:13:10.097Z,27.30
2022-11-21T08:15:37.403Z,23.95
2022-11-21T08:18:21.063Z,26.15
2022-11-21T08:20:48.088Z,22.20
2022-11-21T08:23:14.962Z,15.13
2022-11-21T08:25:42.979Z,18.15
2022-11-21T08:28:11.505Z,20.25
2022-11-21T08:30:39.594Z,28.67
2022-11-21T08:33:07.515Z,25.85
2022-11-21T08:35:38.278Z,20.90
2022-11-21T08:38:06.197Z,16.90
2022-11-21T08:40:34.024Z,22.90
2022-11-21T08:43:06.013Z,23.33
2022-11-21T08:45:34.481Z,29.48
2022-11-21T08:48:02.007Z,30.95
2022-11-21T08:50:29.265Z,27.90
2022-11-21T08:53:03.096Z,22.98
2022-11-21T08:55:30.972Z,18.80
2022-11-21T08:57:58.426Z,24.98
2022-11-21T09:00:25.806Z,30.42
2022-11-21T09:02:53.031Z,28.75
2022-11-21T09:05:20.108Z,28.45
2022-11-21T09:07:47.930Z,31.77
2022-11-21T09:10:15.347Z,26.83
2022-11-21T09:12:42.250Z,34.50
2022-11-21T09:15:30.921Z,28.98
2022-11-21T09:18:04.936Z,35.47
2022-11-21T09:20:34.565Z,41.15
2022-11-21T09:23:05.846Z,28.02
2022-11-21T09:25:33.286Z,35.28
2022-11-21T09:28:02.151Z,41.47
2022-11-21T09:30:29.065Z,30.60
2022-11-21T09:33:04.028Z,30.83
2022-11-21T09:35:31.470Z,32.35
2022-11-21T09:37:58.655Z,36.13
2022-11-21T09:40:26.096Z,33.63
2022-11-21T09:43:01.562Z,30.55
2022-11-21T09:45:47.800Z,29.13
2022-11-21T09:48:22.628Z,38.85
2022-11-21T09:50:59.090Z,35.47
2022-11-21T09:53:46.436Z,30.70
2022-11-21T09:56:23.379Z,34.22
2022-11-21T09:59:37.251Z,34.38
2022-11-21T10:02:20.778Z,28.77
2022-11-21T10:04:49.231Z,37.85
2022-11-21T10:07:22.615Z,31.95
2022-11-21T10:10:23.576Z,26.33
2022-11-21T10:13:19.530Z,30.25
2022-11-21T10:16:06.570Z,32.97
2022-11-21T10:19:03.978Z,29.05
2022-11-21T10:21:45.676Z,32.90
2022-11-21T10:24:12.595Z,25.80
2022-11-21T10:26:52.061Z,32.75
2022-11-21T10:29:21.933Z,38.28
2022-11-21T10:31:49.602Z,43.20
2022-11-21T10:34:21.366Z,43.63
2022-11-21T10:36:56.685Z,32.63
2022-11-21T10:39:36.139Z,33.47
2022-11-21T10:42:24.610Z,38.13
2022-11-21T10:45:11.036Z,33.40
2022-11-21T10:47:38.017Z,27.63
2022-11-21T10:50:23.456Z,41.47
2022-11-21T10:53:03.222Z,33.95
2022-11-21T10:55:30.095Z,34.88
2022-11-21T10:57:57.148Z,43.65
2022-11-21T11:00:27.635Z,36.28
2022-11-21T11:02:57.595Z,32.58
2022-11-21T11:05:29.597Z,25.45
2022-11-21T11:08:06.843Z,26.38
2022-11-21T11:11:08.299Z,31.02
2022-11-21T11:14:10.827Z,34.80
2022-11-21T11:16:45.169Z,35.90
2022-11-21T11:19:14.916Z,44.13
2022-11-21T11:21:41.762Z,29.85
2022-11-21T11:24:11.818Z,50.60
2022-11-21T11:26:48.471Z,37.40
2022-11-21T11:29:24.717Z,33.15
2022-11-21T11:32:20.618Z,30.65
2022-11-21T11:34:56.887Z,36.90
2022-11-21T11:37:41.009Z,25.67
2022-11-21T11:40:16.212Z,44.22
2022-11-21T11:43:13.970Z,39.70
2022-11-21T11:46:26.898Z,37.15
2022-11-21T11:51:54.631Z,44.45
2022-11-21T11:54:34.628Z,30.13
2022-11-21T11:57:04.431Z,34.80
2022-11-21T11:59:43.786Z,31.15
2022-11-21T12:02:23.844Z,61.30
2022-11-21T12:05:01.278Z,38.40
2022-11-21T12:08:38.957Z,33.55
2022-11-21T12:10:34.285Z,47.55
2022-11-21T12:13:14.188Z,38.58
2022-11-21T12:15:50.989Z,37.75
2022-11-21T12:18:21.569Z,38.30
2022-11-21T12:21:15.099Z,19.35
2022-11-21T12:23:50.403Z,14.02
2022-11-21T12:26:29.123Z,11.63
2022-11-21T12:29:13.981Z,14.07
2022-11-21T12:31:52.946Z,12.63
2022-11-21T12:34:25.792Z,9.98
2022-11-21T12:36:58.643Z,13.82
2022-11-21T12:40:19.356Z,11.73
2022-11-21T12:43:01.404Z,8.35
2022-11-21T12:45:39.496Z,12.18
2022-11-21T12:49:06.605Z,17.00
2022-11-21T12:52:15.588Z,6.40
2022-11-21T12:54:48.100Z,8.73
2022-11-21T12:57:20.267Z,12.90
2022-11-21T13:00:17.874Z,6.22
2022-11-21T13:03:03.455Z,10.32
2022-11-21T13:05:36.237Z,7.88
2022-11-21T13:08:12.254Z,7.80
2022-11-21T13:10:49.840Z,6.47
2022-11-21T13:13:26.395Z,3.47
2022-11-21T13:16:17.162Z,4.18
2022-11-21T13:18:48.204Z,2.75
2022-11-21T13:21:50.264Z,14.20
2022-11-21T13:24:44.781Z,4.45
2022-11-21T13:27:38.481Z,2.08
2022-11-21T13:30:09.512Z,1.90
2022-11-21T13:32:49.797Z,2.08
2022-11-21T13:35:16.742Z,4.90
2022-11-21T13:37:50.050Z,2.53
2022-11-21T13:40:32.107Z,2.45
2022-11-21T13:43:32.789Z,2.13
2022-11-21T13:46:01.016Z,1.77
2022-11-21T13:48:31.374Z,5.55
2022-11-21T13:51:00.987Z,6.05
2022-11-21T13:53:36.883Z,4.97
2022-11-21T13:56:40.717Z,2.38
2022-11-21T13:59:19.758Z,4.32
2022-11-21T14:02:04.934Z,1.30
2022-11-21T14:04:43.792Z,1.35
2022-11-21T14:07:38.785Z,5.30
2022-11-21T14:10:35.847Z,2.07
2022-11-21T14:13:04.078Z,1.73
2022-11-21T14:15:52.925Z,2.05
2022-11-21T14:18:24.635Z,4.25
2022-11-21T14:20:57.537Z,3.17
2022-11-21T14:23:33.347Z,4.32
2022-11-21T14:26:04.437Z,1.48
2022-11-21T14:28:33.840Z,2.60
2022-11-21T14:31:09.078Z,6.93
2022-11-21T14:36:13.375Z,5.10
2022-11-21T14:38:43.795Z,3.63
2022-11-21T14:41:26.079Z,4.22
2022-11-21T14:43:59.119Z,5.03
2022-11-21T14:46:28.385Z,1.15
2022-11-21T14:48:57.526Z,1.23
2022-11-21T14:51:25.843Z,2.47
2022-11-21T14:53:53.842Z,1.50
2022-11-21T14:56:24.585Z,1.27
2022-11-21T14:58:54.210Z,1.88
2022-11-21T15:01:24.745Z,7.60
2022-11-21T15:04:03.568Z,3.28
2022-11-21T15:06:33.670Z,6.78
2022-11-21T15:11:54.348Z,4.10
2022-11-21T15:14:39.668Z,6.55
2022-11-21T15:17:11.564Z,4.70
2022-11-21T15:19:38.640Z,3.05
2022-11-21T15:22:05.679Z,4.25
2022-11-21T15:24:43.299Z,4.30
2022-11-21T15:27:28.338Z,5.25
2022-11-21T15:30:07.271Z,1.95
2022-11-21T15:32:34.222Z,1.70
2022-11-21T15:35:39.492Z,1.33
2022-11-21T15:38:20.281Z,2.63
2022-11-21T15:41:05.107Z,2.50
2022-11-21T15:43:38.429Z,4.97
2022-11-21T15:46:15.457Z,4.03
2022-11-21T15:48:44.860Z,3.63
2022-11-21T15:51:12.363Z,3.47
2022-11-21T15:53:39.538Z,3.20
2022-11-21T15:56:07.069Z,2.53
2022-11-21T15:58:34.133Z,14.23
2022-11-21T16:01:01.282Z,3.72
2022-11-21T16:03:28.326Z,1.88
2022-11-21T16:05:55.287Z,3.60
2022-11-21T16:08:22.179Z,3.55
2022-11-21T16:10:49.134Z,2.70
2022-11-21T16:13:15.994Z,4.68
2022-11-21T16:15:43.008Z,7.35
2022-11-21T16:18:10.046Z,5.93
2022-11-21T16:20:36.901Z,5.80
2022-11-21T16:23:04.280Z,4.63
2022-11-21T16:25:31.208Z,9.40
2022-11-21T16:27:59.800Z,3.60
2022-11-21T16:30:29.095Z,2.25
2022-11-21T16:32:56.501Z,2.97
2022-11-21T16:35:23.991Z,2.85
2022-11-21T16:37:53.295Z,4.43
2022-11-21T16:40:20.938Z,3.65
2022-11-21T16:42:47.853Z,7.47
2022-11-21T16:45:14.805Z,4.25
2022-11-21T16:47:45.841Z,5.25
2022-11-21T16:50:14.374Z,3.83
2022-11-21T16:52:41.336Z,8.32
2022-11-21T16:55:08.535Z,4.00
2022-11-21T16:57:35.570Z,4.78
2022-11-21T17:00:02.623Z,5.35
2022-11-21T17:02:30.187Z,4.93
2022-11-21T17:04:57.083Z,4.82
2022-11-21T17:07:23.957Z,9.18
2022-11-21T17:09:51.697Z,3.65
2022-11-21T17:12:18.537Z,3.80
2022-11-21T17:14:47.604Z,5.50
2022-11-21T17:17:14.536Z,4.32
2022-11-21T17:19:41.539Z,6.55
2022-11-21T17:22:08.443Z,6.20
2022-11-21T17:24:35.376Z,2.80
2022-11-21T17:27:02.915Z,3.20
2022-11-21T17:29:30.542Z,4.90
2022-11-21T17:31:57.524Z,3.88
2022-11-21T17:34:28.428Z,2.00
2022-11-21T17:36:59.750Z,1.70
2022-11-21T17:39:29.920Z,5.20
2022-11-21T17:41:59.458Z,3.65
2022-11-21T17:44:26.508Z,2.63
2022-11-21T17:46:53.793Z,3.08
2022-11-21T17:49:21.569Z,1.65
2022-11-21T17:51:53.799Z,8.10
2022-11-21T17:54:23.455Z,1.77
2022-11-21T17:56:56.461Z,1.67
2022-11-21T17:59:23.861Z,1.63
2022-11-21T18:01:50.858Z,3.67
2022-11-21T18:04:18.475Z,2.53
2022-11-21T18:06:45.446Z,1.70
2022-11-21T18:09:13.304Z,4.88
2022-11-21T18:11:40.898Z,4.35
2022-11-21T18:14:10.182Z,2.10
2022-11-21T18:16:39.631Z,4.15
2022-11-21T18:19:07.335Z,4.20
2022-11-21T18:21:36.391Z,1.35
2022-11-21T18:24:03.583Z,1.00
2022-11-21T18:26:33.497Z,1.20
2022-11-21T18:29:28.746Z,2.33
2022-11-21T18:31:49.343Z,1.00
2022-11-21T18:34:16.412Z,1.42
2022-11-21T18:36:43.365Z,1.08
2022-11-21T18:39:14.546Z,1.50
2022-11-21T18:41:43.365Z,1.33
2022-11-21T18:44:11.391Z,2.95
2022-11-21T18:46:39.710Z,2.28
2022-11-21T18:49:08.095Z,2.33
2022-11-21T18:51:36.695Z,3.55
2022-11-21T18:54:09.777Z,1.48
2022-11-21T18:56:38.351Z,1.52
2022-11-21T18:59:06.661Z,1.60
2022-11-21T19:01:35.949Z,1.10
2022-11-21T19:04:04.005Z,1.38
2022-11-21T19:06:31.577Z,2.15
2022-11-21T19:08:59.081Z,1.75
2022-11-21T19:11:28.656Z,1.80
2022-11-21T19:13:57.538Z,1.35
2022-11-21T19:16:26.632Z,1.33
2022-11-21T19:19:33.578Z,3.50
2022-11-21T19:21:43.844Z,3.28
2022-11-21T19:24:13.560Z,3.35
2022-11-21T19:26:41.579Z,2.03
2022-11-21T19:29:08.936Z,3.03
2022-11-21T19:31:41.076Z,1.52
2022-11-21T19:34:13.162Z,1.27
2022-11-21T19:36:40.197Z,1.50
2022-11-21T19:39:07.775Z,1.23
2022-11-21T19:41:34.690Z,2.38
2022-11-21T19:44:02.014Z,1.42
2022-11-21T19:46:34.539Z,2.15
2022-11-21T19:49:02.619Z,1.85
2022-11-21T19:51:32.328Z,1.58
2022-11-21T19:53:59.255Z,1.40
2022-11-21T19:56:27.008Z,5.13
2022-11-21T19:58:55.309Z,1.42
2022-11-21T20:01:25.046Z,1.52
2022-11-21T20:03:54.880Z,9.13
2022-11-21T20:06:24.564Z,1.20
2022-11-21T20:08:55.897Z,1.77
2022-11-21T20:11:24.353Z,4.00
2022-11-21T20:13:51.461Z,1.60
2022-11-21T20:16:23.972Z,1.42
2022-11-21T20:18:52.280Z,2.45
2022-11-21T20:21:20.231Z,1.88
2022-11-21T20:23:47.813Z,1.98
2022-11-21T20:26:16.501Z,1.23
2022-11-21T20:28:44.132Z,1.65
2022-11-21T20:31:12.507Z,3.80
2022-11-21T20:33:41.793Z,1.75
2022-11-21T20:36:18.701Z,1.58
2022-11-21T20:38:51.168Z,1.70
2022-11-21T20:41:19.484Z,1.98
2022-11-21T20:44:41.662Z,1.23
2022-11-21T20:46:35.209Z,1.65
2022-11-21T20:49:02.444Z,1.80
2022-11-21T20:54:16.289Z,2.65
2022-11-21T20:56:44.579Z,1.33
2022-11-21T20:59:12.193Z,1.30
2022-11-21T21:01:39.307Z,3.65
2022-11-21T21:04:06.406Z,1.70
2022-11-21T21:06:33.347Z,1.50
2022-11-21T21:09:00.311Z,1.70
2022-11-21T21:14:14.432Z,1.50
2022-11-21T21:16:43.420Z,1.48
2022-11-21T21:19:10.342Z,4.45
2022-11-21T21:21:37.551Z,1.40
2022-11-21T21:24:07.538Z,1.70
2022-11-21T21:26:42.179Z,1.45
2022-11-21T21:29:14.326Z,1.27
2022-11-21T21:31:46.765Z,1.63
2022-11-21T21:34:17.299Z,3.30
2022-11-21T21:36:44.285Z,1.65
2022-11-21T21:39:11.456Z,2.25
2022-11-21T21:41:44.820Z,1.70
2022-11-21T21:44:12.434Z,1.50
2022-11-21T21:46:39.342Z,1.80
2022-11-21T21:49:06.168Z,3.90
2022-11-21T21:51:33.083Z,2.10
2022-11-21T21:54:00.145Z,2.20
2022-11-21T21:56:28.536Z,2.83
2022-11-21T21:58:57.307Z,3.20
2022-11-21T22:01:29.925Z,6.13
2022-11-21T22:04:02.872Z,2.75
2022-11-21T22:06:32.601Z,4.45
2022-11-21T22:09:00.119Z,3.63
2022-11-21T22:11:32.315Z,4.05
2022-11-21T22:14:05.164Z,3.55
2022-11-21T22:16:32.312Z,4.55
2022-11-21T22:18:59.480Z,4.05
2022-11-21T22:21:34.131Z,3.80
2022-11-21T22:24:24.980Z,4.47
2022-11-21T22:26:49.927Z,4.32
2022-11-21T22:29:16.993Z,8.15
2022-11-21T22:31:43.903Z,5.13
2022-11-21T22:34:13.768Z,4.60
2022-11-21T22:36:41.760Z,6.50
2022-11-21T22:39:09.186Z,5.30
2022-11-21T22:41:36.170Z,7.82
2022-11-21T22:44:03.333Z,6.22
2022-11-21T22:46:31.056Z,5.30
2022-11-21T22:48:58.696Z,5.40
2022-11-21T22:51:29.782Z,5.75
2022-11-21T22:53:57.481Z,8.32
2022-11-21T22:56:25.348Z,5.93
2022-11-21T22:58:53.105Z,6.40
2022-11-21T23:01:22.257Z,5.85
2022-11-21T23:03:49.788Z,6.28
2022-11-21T23:06:23.852Z,6.05
2022-11-21T23:08:52.637Z,5.82
2022-11-21T23:11:23.021Z,6.07
2022-11-21T23:13:51.429Z,5.90
2022-11-21T23:16:19.196Z,7.85
2022-11-21T23:18:46.369Z,5.88
2022-11-21T23:21:14.443Z,7.55
2022-11-21T23:23:41.470Z,7.25
2022-11-21T23:26:08.563Z,7.47
2022-11-21T23:28:35.457Z,8.00
2022-11-21T23:31:02.739Z,14.18
2022-11-21T23:33:29.575Z,11.85
2022-11-21T23:35:56.479Z,11.23
2022-11-21T23:38:23.375Z,9.02
2022-11-21T23:40:50.469Z,10.45
2022-11-21T23:43:18.148Z,11.23
2022-11-21T23:45:49.476Z,10.75
2022-11-21T23:48:16.608Z,10.20
2022-11-21T23:50:43.613Z,11.00
2022-11-21T23:53:10.560Z,12.88
2022-11-21T23:55:37.468Z,13.25
2022-11-21T23:58:04.512Z,9.32
